createdAt,value
2023-09-25T00:01:16.107Z,101676.09
2023-09-25T00:04:08.323Z,101677.50
2023-09-25T00:07:00.055Z,101673.31
2023-09-25T00:09:45.178Z,101669.69
2023-09-25T00:12:37.115Z,101668.84
2023-09-25T00:15:21.954Z,101658.09
2023-09-25T00:18:14.103Z,101658.09
2023-09-25T00:20:59.364Z,101653.06
2023-09-25T00:23:51.065Z,101656.53
2023-09-25T00:26:36.081Z,101656.25
2023-09-25T00:29:27.069Z,101653.34
2023-09-25T00:32:11.876Z,101662.53
2023-09-25T00:35:03.075Z,101661.00
2023-09-25T00:37:48.796Z,101660.59
2023-09-25T00:40:41.087Z,101664.66
2023-09-25T00:43:32.077Z,101668.25
2023-09-25T00:46:17.424Z,101672.88
2023-09-25T00:49:09.068Z,101670.50
2023-09-25T00:51:55.554Z,101666.75
2023-09-25T00:54:47.085Z,101667.03
2023-09-25T00:57:35.462Z,101659.47
2023-09-25T01:00:27.123Z,101656.13
2023-09-25T01:03:27.124Z,101659.06
2023-09-25T01:06:12.703Z,101657.13
2023-09-25T01:09:04.219Z,101659.34
2023-09-25T01:11:49.490Z,101672.44
2023-09-25T01:14:41.077Z,101673.44
2023-09-25T01:17:26.318Z,101666.88
2023-09-25T01:20:21.099Z,101664.38
2023-09-25T01:23:06.431Z,101659.91
2023-09-25T01:25:58.096Z,101663.25
2023-09-25T01:28:50.190Z,101665.63
2023-09-25T01:31:35.534Z,101663.94
2023-09-25T01:34:27.098Z,101658.63
2023-09-25T01:37:19.078Z,101656.25
2023-09-25T01:40:13.084Z,101654.28
2023-09-25T01:43:05.071Z,101654.72
2023-09-25T01:45:57.136Z,101651.63
2023-09-25T01:48:42.336Z,101650.38
2023-09-25T01:51:34.134Z,101648.94
2023-09-25T01:54:26.152Z,101641.00
2023-09-25T01:57:18.088Z,101638.34
2023-09-25T02:00:15.126Z,101647.16
2023-09-25T02:03:07.442Z,101649.38
2023-09-25T02:06:03.093Z,101650.75
2023-09-25T02:08:48.613Z,101654.53
2023-09-25T02:11:40.100Z,101659.56
2023-09-25T02:14:32.090Z,101662.19
2023-09-25T02:17:17.413Z,101660.97
2023-09-25T02:20:27.109Z,101667.38
2023-09-25T02:23:19.087Z,101665.59
2023-09-25T02:26:11.093Z,101660.16
2023-09-25T02:28:56.088Z,101652.06
2023-09-25T02:31:47.132Z,101654.13
2023-09-25T02:34:32.268Z,101652.88
2023-09-25T02:37:25.100Z,101650.91
2023-09-25T02:40:21.142Z,101658.00
2023-09-25T02:43:06.498Z,101654.28
2023-09-25T02:45:59.170Z,101656.75
2023-09-25T02:48:51.305Z,101659.00
2023-09-25T02:51:36.705Z,101664.47
2023-09-25T02:54:28.151Z,101666.13
2023-09-25T02:57:20.142Z,101661.13
2023-09-25T03:00:19.112Z,101667.97
2023-09-25T03:03:11.520Z,101672.69
2023-09-25T03:06:03.113Z,101687.47
2023-09-25T03:08:48.558Z,101690.28
2023-09-25T03:11:40.110Z,101687.16
2023-09-25T03:14:25.237Z,101687.97
2023-09-25T03:17:17.122Z,101695.50
2023-09-25T03:20:08.702Z,101693.25
2023-09-25T03:23:02.178Z,101686.69
2023-09-25T03:25:54.115Z,101687.66
2023-09-25T03:28:39.005Z,101689.00
2023-09-25T03:31:30.180Z,101686.19
2023-09-25T03:34:21.109Z,101686.81
2023-09-25T03:37:05.979Z,101689.41
2023-09-25T03:39:57.101Z,101686.88
2023-09-25T03:42:42.839Z,101692.91
2023-09-25T03:45:34.152Z,101686.34
2023-09-25T03:48:19.346Z,101693.28
2023-09-25T03:51:11.143Z,101692.91
2023-09-25T03:53:56.056Z,101710.50
2023-09-25T03:56:48.125Z,101706.75
2023-09-25T03:59:40.114Z,101715.13
2023-09-25T04:02:31.155Z,101712.72
2023-09-25T04:05:29.122Z,101710.72
2023-09-25T04:08:21.146Z,101707.63
2023-09-25T04:11:06.457Z,101715.44
2023-09-25T04:13:58.115Z,101710.81
2023-09-25T04:16:43.257Z,101714.53
2023-09-25T04:19:35.214Z,101719.13
2023-09-25T04:22:21.210Z,101717.72
2023-09-25T04:25:17.126Z,101721.25
2023-09-25T04:28:09.146Z,101716.91
2023-09-25T04:30:54.638Z,101730.88
2023-09-25T04:33:49.168Z,101725.50
2023-09-25T04:36:34.969Z,101717.91
2023-09-25T04:39:28.211Z,101722.88
2023-09-25T04:42:13.241Z,101728.16
2023-09-25T04:45:05.141Z,101728.84
2023-09-25T04:47:54.788Z,101729.13
2023-09-25T04:50:48.144Z,101738.16
2023-09-25T04:53:33.376Z,101736.50
2023-09-25T04:56:29.136Z,101742.94
2023-09-25T04:59:21.122Z,101731.25
2023-09-25T05:02:27.170Z,101735.19
2023-09-25T05:05:20.133Z,101733.38
2023-09-25T05:08:05.517Z,101727.66
2023-09-25T05:10:57.125Z,101738.34
2023-09-25T05:13:44.412Z,101733.78
2023-09-25T05:16:36.172Z,101734.50
2023-09-25T05:19:21.064Z,101739.59
2023-09-25T05:22:13.128Z,101732.94
2023-09-25T05:24:58.043Z,101738.69
2023-09-25T05:27:52.186Z,101741.63
2023-09-25T05:30:37.092Z,101740.50
2023-09-25T05:33:29.175Z,101743.97
2023-09-25T05:36:20.190Z,101745.00
2023-09-25T05:39:07.047Z,101731.59
2023-09-25T05:41:59.154Z,101745.78
2023-09-25T05:44:44.083Z,101738.69
2023-09-25T05:47:36.162Z,101736.88
2023-09-25T05:50:27.151Z,101742.16
2023-09-25T05:53:19.154Z,101736.47
2023-09-25T05:56:04.367Z,101737.34
2023-09-25T05:58:57.144Z,101742.91
2023-09-25T06:01:50.191Z,101747.16
2023-09-25T06:04:41.533Z,101746.59
2023-09-25T06:07:33.150Z,101753.81
2023-09-25T06:10:25.135Z,101740.88
2023-09-25T06:13:10.927Z,101745.22
2023-09-25T06:16:02.148Z,101737.28
2023-09-25T06:18:48.829Z,101745.94
2023-09-25T06:21:41.179Z,101737.03
2023-09-25T06:24:26.511Z,101726.72
2023-09-25T06:27:18.180Z,101734.84
2023-09-25T06:30:10.137Z,101741.38
2023-09-25T06:33:02.248Z,101739.03
2023-09-25T06:35:46.936Z,101744.38
2023-09-25T06:38:39.158Z,101745.06
2023-09-25T06:41:24.281Z,101744.34
2023-09-25T06:44:16.146Z,101745.06
2023-09-25T06:47:01.493Z,101742.00
2023-09-25T06:49:53.142Z,101748.28
2023-09-25T06:52:38.181Z,101738.34
2023-09-25T06:55:30.157Z,101739.22
2023-09-25T06:58:15.193Z,101743.25
2023-09-25T07:01:07.217Z,101748.97
2023-09-25T07:03:58.386Z,101741.91
2023-09-25T07:06:50.231Z,101737.41
2023-09-25T07:09:34.987Z,101739.47
2023-09-25T07:12:27.643Z,101738.56
2023-09-25T07:15:13.109Z,101746.25
2023-09-25T07:18:06.183Z,101741.31
2023-09-25T07:20:55.454Z,101731.81
2023-09-25T07:23:47.183Z,101728.97
2023-09-25T07:26:38.169Z,101732.59
2023-09-25T07:29:38.728Z,101724.88
2023-09-25T07:32:32.251Z,101727.84
2023-09-25T07:35:17.369Z,101732.06
2023-09-25T07:38:10.162Z,101720.94
2023-09-25T07:41:03.211Z,101717.06
2023-09-25T07:43:58.364Z,101707.31
2023-09-25T07:46:51.278Z,101700.75
2023-09-25T07:49:48.194Z,101699.56
2023-09-25T07:52:40.189Z,101692.63
2023-09-25T07:55:25.462Z,101702.09
2023-09-25T07:58:19.181Z,101692.38
2023-09-25T08:01:08.909Z,101692.13
2023-09-25T08:04:07.275Z,101694.22
2023-09-25T08:06:52.311Z,101703.09
2023-09-25T08:09:44.212Z,101703.41
2023-09-25T08:12:29.539Z,101702.91
2023-09-25T08:15:21.206Z,101702.25
2023-09-25T08:18:06.416Z,101697.91
2023-09-25T08:20:58.171Z,101693.72
2023-09-25T08:23:43.360Z,101701.28
2023-09-25T08:26:35.173Z,101696.56
2023-09-25T08:29:20.313Z,101694.00
2023-09-25T08:32:12.278Z,101693.31
2023-09-25T08:34:57.159Z,101693.63
2023-09-25T08:37:49.314Z,101687.00
2023-09-25T08:40:37.437Z,101690.38
2023-09-25T08:43:29.254Z,101684.00
2023-09-25T08:46:21.237Z,101689.09
2023-09-25T08:49:07.197Z,101681.41
2023-09-25T08:52:00.321Z,101685.44
2023-09-25T08:54:47.560Z,101681.88
2023-09-25T08:57:40.280Z,101679.72
2023-09-25T09:00:25.679Z,101676.09
2023-09-25T09:03:24.326Z,101669.09
2023-09-25T09:06:16.682Z,101662.91
2023-09-25T09:09:08.225Z,101662.81
2023-09-25T09:11:53.819Z,101658.66
2023-09-25T09:14:47.226Z,101656.94
2023-09-25T09:17:32.220Z,101659.47
2023-09-25T09:20:24.217Z,101654.66
2023-09-25T09:26:03.218Z,101647.53
2023-09-25T09:28:48.935Z,101651.59
2023-09-25T09:31:42.214Z,101642.28
2023-09-25T09:34:27.698Z,101647.66
2023-09-25T09:37:22.300Z,101650.25
2023-09-25T09:40:12.294Z,101657.75
2023-09-25T09:43:05.213Z,101654.88
2023-09-25T09:45:57.288Z,101654.97
2023-09-25T09:48:47.224Z,101646.47
2023-09-25T09:51:40.271Z,101640.91
2023-09-25T09:54:34.270Z,101645.75
2023-09-25T09:57:20.290Z,101642.44
2023-09-25T10:00:14.247Z,101636.63
2023-09-25T10:03:13.353Z,101639.50
2023-09-25T10:05:59.683Z,101629.06
2023-09-25T10:09:08.236Z,101632.69
2023-09-25T10:11:55.823Z,101629.97
2023-09-25T10:14:51.243Z,101627.63
2023-09-25T10:17:43.003Z,101619.69
2023-09-25T10:20:46.289Z,101622.63
2023-09-25T10:23:39.240Z,101614.22
2023-09-25T10:26:26.282Z,101622.13
2023-09-25T10:29:23.237Z,101614.25
2023-09-25T10:32:12.751Z,101608.56
2023-09-25T10:35:04.281Z,101616.19
2023-09-25T10:38:30.137Z,101607.09
2023-09-25T10:41:23.270Z,101605.03
2023-09-25T10:44:10.913Z,101614.03
2023-09-25T10:47:03.247Z,101607.44
2023-09-25T10:49:56.234Z,101599.75
2023-09-25T10:52:41.062Z,101593.03
2023-09-25T10:55:32.253Z,101603.44
2023-09-25T10:58:25.264Z,101606.25
2023-09-25T11:01:17.346Z,101606.69
2023-09-25T11:04:10.364Z,101593.09
2023-09-25T11:07:02.310Z,101594.47
2023-09-25T11:09:47.497Z,101581.81
2023-09-25T11:12:39.280Z,101582.16
2023-09-25T11:15:35.430Z,101577.81
2023-09-25T11:18:27.368Z,101577.16
2023-09-25T11:21:12.620Z,101573.47
2023-09-25T11:24:04.373Z,101572.91
2023-09-25T11:26:56.271Z,101575.38
2023-09-25T11:29:48.253Z,101569.00
2023-09-25T11:32:39.318Z,101562.81
2023-09-25T11:35:33.263Z,101562.97
2023-09-25T11:38:22.822Z,101560.47
2023-09-25T11:41:15.288Z,101564.69
2023-09-25T11:44:02.833Z,101560.38
2023-09-25T11:46:54.427Z,101569.16
2023-09-25T11:49:39.771Z,101554.69
2023-09-25T11:52:31.299Z,101561.66
2023-09-25T11:55:16.640Z,101569.19
2023-09-25T11:58:09.298Z,101572.13
2023-09-25T12:00:54.294Z,101577.09
2023-09-25T12:03:52.544Z,101580.81
2023-09-25T12:06:45.337Z,101578.97
2023-09-25T12:09:37.286Z,101568.22
2023-09-25T12:12:22.662Z,101562.41
2023-09-25T12:15:16.280Z,101560.06
2023-09-25T12:18:01.512Z,101563.56
2023-09-25T12:20:53.301Z,101563.41
2023-09-25T12:23:38.179Z,101572.38
2023-09-25T12:26:29.279Z,101572.97
2023-09-25T12:29:14.380Z,101574.84
2023-09-25T12:32:06.550Z,101567.78
2023-09-25T12:34:51.774Z,101577.72
2023-09-25T12:37:43.294Z,101575.25
2023-09-25T12:40:30.966Z,101576.41
2023-09-25T12:43:22.359Z,101571.84
2023-09-25T12:46:07.865Z,101567.84
2023-09-25T12:48:59.321Z,101569.34
2023-09-25T12:51:44.534Z,101560.03
2023-09-25T12:54:36.308Z,101555.53
2023-09-25T12:57:23.358Z,101553.19
2023-09-25T13:00:16.314Z,101559.06
2023-09-25T13:03:08.411Z,101545.94
2023-09-25T13:05:59.529Z,101539.97
2023-09-25T13:08:51.314Z,101545.56
2023-09-25T13:11:44.301Z,101547.06
2023-09-25T13:14:29.230Z,101542.41
2023-09-25T13:17:21.310Z,101538.75
2023-09-25T13:20:09.047Z,101530.75
2023-09-25T13:23:01.335Z,101538.50
2023-09-25T13:25:46.527Z,101541.63
2023-09-25T13:28:38.331Z,101547.38
2023-09-25T13:31:24.581Z,101549.28
2023-09-25T13:34:16.307Z,101556.16
2023-09-25T13:37:01.752Z,101553.06
2023-09-25T13:39:53.429Z,101565.06
2023-09-25T13:42:38.648Z,101564.28
2023-09-25T13:45:30.352Z,101562.41
2023-09-25T13:48:15.387Z,101568.84
2023-09-25T13:51:07.325Z,101563.69
2023-09-25T13:54:00.309Z,101552.03
2023-09-25T13:56:45.543Z,101567.78
2023-09-25T13:59:37.323Z,101558.22
2023-09-25T14:02:28.377Z,101558.63
2023-09-25T14:05:27.333Z,101559.00
2023-09-25T14:08:12.290Z,101555.59
2023-09-25T14:11:12.322Z,101555.38
2023-09-25T14:13:57.321Z,101554.22
2023-09-25T14:16:49.377Z,101562.63
2023-09-25T14:19:40.322Z,101553.63
2023-09-25T14:22:32.552Z,101565.19
2023-09-25T14:25:17.754Z,101567.84
2023-09-25T14:28:09.384Z,101567.91
2023-09-25T14:31:01.371Z,101547.59
2023-09-25T14:33:53.616Z,101538.97
2023-09-25T14:36:45.388Z,101544.91
2023-09-25T14:39:32.120Z,101547.38
2023-09-25T14:42:24.351Z,101551.84
2023-09-25T14:45:09.937Z,101550.38
2023-09-25T14:48:01.426Z,101545.19
2023-09-25T14:50:53.354Z,101546.44
2023-09-25T14:53:38.591Z,101543.72
2023-09-25T14:56:30.339Z,101543.09
2023-09-25T14:59:22.362Z,101541.38
2023-09-25T15:02:14.359Z,101538.50
2023-09-25T15:05:13.400Z,101537.66
2023-09-25T15:08:05.350Z,101535.13
2023-09-25T15:10:51.733Z,101537.44
2023-09-25T15:13:43.386Z,101532.31
2023-09-25T15:16:28.469Z,101531.47
2023-09-25T15:19:20.359Z,101540.22
2023-09-25T15:22:06.198Z,101538.97
2023-09-25T15:24:58.394Z,101536.69
2023-09-25T15:27:50.400Z,101535.44
2023-09-25T15:30:36.676Z,101539.19
2023-09-25T15:33:28.405Z,101546.84
2023-09-25T15:36:13.663Z,101538.56
2023-09-25T15:39:05.404Z,101539.41
2023-09-25T15:41:57.364Z,101538.97
2023-09-25T15:44:42.566Z,101539.78
2023-09-25T15:47:34.375Z,101543.13
2023-09-25T15:50:26.374Z,101546.44
2023-09-25T15:53:11.686Z,101550.56
2023-09-25T15:56:05.375Z,101543.97
2023-09-25T15:58:50.808Z,101554.09
2023-09-25T16:01:42.396Z,101556.38
2023-09-25T16:04:34.910Z,101554.56
2023-09-25T16:07:26.377Z,101556.41
2023-09-25T16:10:11.861Z,101550.16
2023-09-25T16:13:03.415Z,101548.53
2023-09-25T16:15:49.108Z,101541.47
2023-09-25T16:18:40.415Z,101547.88
2023-09-25T16:21:25.635Z,101550.59
2023-09-25T16:24:17.409Z,101546.03
2023-09-25T16:27:02.302Z,101548.31
2023-09-25T16:29:54.422Z,101548.53
2023-09-25T16:32:39.931Z,101548.28
2023-09-25T16:35:31.387Z,101543.53
2023-09-25T16:38:23.415Z,101547.25
2023-09-25T16:41:15.380Z,101548.63
2023-09-25T16:44:07.462Z,101545.22
2023-09-25T16:46:52.561Z,101544.84
2023-09-25T16:49:44.392Z,101542.78
2023-09-25T16:52:36.389Z,101547.13
2023-09-25T16:55:27.380Z,101542.56
2023-09-25T16:58:19.397Z,101543.78
2023-09-25T17:01:07.461Z,101539.00
2023-09-25T17:03:59.492Z,101542.22
2023-09-25T17:06:51.567Z,101539.31
2023-09-25T17:09:43.449Z,101546.00
2023-09-25T17:12:28.514Z,101546.06
2023-09-25T17:15:20.397Z,101546.31
2023-09-25T17:18:13.632Z,101553.97
2023-09-25T17:21:05.406Z,101556.75
2023-09-25T17:23:50.479Z,101559.19
2023-09-25T17:26:42.414Z,101561.13
2023-09-25T17:29:27.754Z,101564.84
2023-09-25T17:32:19.549Z,101570.63
2023-09-25T17:35:05.370Z,101561.59
2023-09-25T17:37:59.416Z,101561.94
2023-09-25T17:40:50.408Z,101564.59
2023-09-25T17:43:42.474Z,101563.94
2023-09-25T17:46:27.667Z,101561.06
2023-09-25T17:49:19.435Z,101564.47
2023-09-25T17:52:17.765Z,101565.09
2023-09-25T17:55:15.547Z,101569.88
2023-09-25T17:58:16.028Z,101579.44
2023-09-25T18:01:04.819Z,101570.09
2023-09-25T18:03:56.527Z,101566.16
2023-09-25T18:06:42.293Z,101572.22
2023-09-25T18:09:34.470Z,101581.44
2023-09-25T18:12:26.500Z,101582.00
2023-09-25T18:15:12.893Z,101584.88
2023-09-25T18:18:04.479Z,101590.22
2023-09-25T18:20:49.738Z,101586.25
2023-09-25T18:23:41.422Z,101594.66
2023-09-25T18:26:27.305Z,101598.88
2023-09-25T18:29:19.445Z,101594.56
2023-09-25T18:32:05.500Z,101597.59
2023-09-25T18:34:57.429Z,101593.63
2023-09-25T18:37:42.514Z,101594.97
2023-09-25T18:40:36.384Z,101603.28
2023-09-25T18:43:36.458Z,101603.59
2023-09-25T18:46:34.538Z,101613.81
2023-09-25T18:49:33.432Z,101607.47
2023-09-25T18:52:25.452Z,101600.13
2023-09-25T18:55:10.622Z,101611.22
2023-09-25T18:58:02.544Z,101613.41
2023-09-25T19:00:51.226Z,101619.75
2023-09-25T19:03:49.550Z,101623.09
2023-09-25T19:06:41.515Z,101609.41
2023-09-25T19:09:34.492Z,101623.28
2023-09-25T19:12:19.633Z,101623.78
2023-09-25T19:15:11.446Z,101629.81
2023-09-25T19:18:04.501Z,101634.50
2023-09-25T19:20:56.509Z,101633.66
2023-09-25T19:23:41.758Z,101636.34
2023-09-25T19:26:33.448Z,101636.00
2023-09-25T19:29:24.393Z,101641.00
2023-09-25T19:32:09.558Z,101643.34
2023-09-25T19:35:01.519Z,101645.16
2023-09-25T19:37:47.941Z,101638.66
2023-09-25T19:40:40.583Z,101642.66
2023-09-25T19:43:25.340Z,101640.81
2023-09-25T19:46:16.539Z,101640.00
2023-09-25T19:49:01.754Z,101645.97
2023-09-25T19:51:53.476Z,101644.97
2023-09-25T19:54:46.463Z,101651.13
2023-09-25T19:57:38.514Z,101652.28
2023-09-25T20:00:23.733Z,101654.28
2023-09-25T20:03:17.958Z,101654.59
2023-09-25T20:06:09.740Z,101653.41
2023-09-25T20:09:02.469Z,101655.09
2023-09-25T20:11:54.483Z,101646.72
2023-09-25T20:14:45.581Z,101641.69
2023-09-25T20:17:30.492Z,101647.34
2023-09-25T20:20:22.491Z,101650.19
2023-09-25T20:23:07.848Z,101636.16
2023-09-25T20:26:00.463Z,101641.66
2023-09-25T20:28:45.748Z,101653.47
2023-09-25T20:31:37.550Z,101649.09
2023-09-25T20:34:29.487Z,101658.25
2023-09-25T20:37:21.501Z,101659.56
2023-09-25T20:40:07.348Z,101655.41
2023-09-25T20:42:58.530Z,101659.53
2023-09-25T20:45:50.529Z,101662.69
2023-09-25T20:48:42.799Z,101656.38
2023-09-25T20:51:28.238Z,101656.03
2023-09-25T20:54:19.472Z,101660.53
2023-09-25T20:57:04.818Z,101657.81
2023-09-25T20:59:56.476Z,101655.28
2023-09-25T21:02:42.195Z,101656.13
2023-09-25T21:05:40.474Z,101653.59
2023-09-25T21:08:26.718Z,101652.41
2023-09-25T21:11:18.485Z,101650.41
2023-09-25T21:14:10.476Z,101651.25
2023-09-25T21:17:02.544Z,101651.19
2023-09-25T21:19:53.470Z,101651.19
2023-09-25T21:22:45.457Z,101650.53
2023-09-25T21:25:36.479Z,101652.50
2023-09-25T21:28:21.723Z,101659.81
2023-09-25T21:31:13.627Z,101655.63
2023-09-25T21:33:59.178Z,101653.94
2023-09-25T21:36:50.518Z,101646.31
2023-09-25T21:39:42.495Z,101660.38
2023-09-25T21:42:27.455Z,101656.00
2023-09-25T21:45:18.510Z,101650.44
2023-09-25T21:48:04.091Z,101650.16
2023-09-25T21:51:05.493Z,101650.75
2023-09-25T21:53:50.746Z,101650.22
2023-09-25T21:56:42.489Z,101643.81
2023-09-25T21:59:27.582Z,101649.16
2023-09-25T22:02:19.476Z,101645.94
2023-09-25T22:05:17.506Z,101644.91
2023-09-25T22:08:02.991Z,101641.19
2023-09-25T22:10:54.535Z,101641.78
2023-09-25T22:13:39.623Z,101639.81
2023-09-25T22:16:31.630Z,101638.75
2023-09-25T22:19:16.927Z,101642.41
2023-09-25T22:22:08.570Z,101640.88
2023-09-25T22:24:53.723Z,101638.06
2023-09-25T22:27:45.507Z,101637.91
2023-09-25T22:30:32.369Z,101642.25
2023-09-25T22:33:24.487Z,101653.44
2023-09-25T22:36:10.883Z,101643.09
2023-09-25T22:39:02.532Z,101638.75
2023-09-25T22:41:47.694Z,101632.59
2023-09-25T22:44:40.515Z,101626.34
2023-09-25T22:47:32.499Z,101630.56
2023-09-25T22:50:17.657Z,101627.34
2023-09-25T22:53:09.541Z,101627.66
2023-09-25T22:56:00.510Z,101636.38
2023-09-25T22:58:45.851Z,101628.16
2023-09-25T23:01:37.600Z,101629.81
2023-09-25T23:04:29.573Z,101630.72
2023-09-25T23:07:22.488Z,101628.75
2023-09-25T23:10:16.539Z,101623.59
2023-09-25T23:13:08.587Z,101621.16
2023-09-25T23:16:00.620Z,101629.03
2023-09-25T23:18:45.416Z,101634.03
2023-09-25T23:21:37.513Z,101638.81
2023-09-25T23:24:29.508Z,101633.88
2023-09-25T23:27:21.534Z,101632.91
2023-09-25T23:30:07.622Z,101627.88
2023-09-25T23:32:59.560Z,101637.16
2023-09-25T23:35:51.525Z,101639.41
2023-09-25T23:38:36.413Z,101639.47
2023-09-25T23:41:28.524Z,101644.78
2023-09-25T23:44:13.853Z,101640.13
2023-09-25T23:47:05.617Z,101644.31
2023-09-25T23:49:50.700Z,101631.47
2023-09-25T23:52:43.525Z,101636.97
2023-09-25T23:55:28.713Z,101631.13
2023-09-25T23:58:20.564Z,101635.31
